Artesian, SD

4:18 AM CDT on July 23, 2014 (GMT -0500)
Mitchell Municipal (KMHE) Elev 1302 ft | 43.77 °N, 98.04 °W | Change Station

Current weather conditions updated 25 minutes ago

Partly Cloudy
Partly Cloudy
62 °F
Feels Like 62 °F
N
5
Wind Variable Wind from East

Today is forecast to be nearly the same temperature as yesterday.

Today
High -- | Low -- °F
--% Chance of Precip.
Yesterday
High -- | Low -- °F
Precip. -- in
6:10 AM 9:05 PM
Waning Crescent, 11% visible
Pressure 30.22 in
Visibility 10.0 miles
Clouds Clear
Dew Point 58 °F
Humidity 86%
Rainfall 0.00 in
Snow Depth Not available.
UV 0 out of 12
Pollen 6.00 out of 12
Air Quality Not available.
Flu Activity Not available.
METAR KMHE 230853Z AUTO 08004KT 10SM CLR 17/14 A3024 RMK AO2 SLP233 T01670144 51006

More Conditions Fewer Conditions

Pressure 30.22 in
Visibility 10.0 miles
Clouds Clear
Dew Point 58 °F
Humidity 86%
Rainfall 0.00 in
Snow Depth Not available.
UV 0 out of 12
Pollen 6.00 out of 12
Air Quality Not available.
Flu Activity Not available.
METAR KMHE 230853Z AUTO 08004KT 10SM CLR 17/14 A3024 RMK AO2 SLP233 T01670144 51006

More Conditions Fewer Conditions

10-Day Weather Forecast

Almanac

Astronomy

Jul. 23, 2014 Rise Set
Actual Time 6:10 AM CDT 9:05 PM CDT
Civil Twilight 5:36 AM CDT 9:39 PM CDT
Nautical Twilight 4:52 AM CDT 10:22 PM CDT
Astronomical Twilight 4:01 AM CDT 11:13 PM CDT
Moon 3:31 AM CDT 6:34 PM CDT
Length of Visible Light 16h 03m
Length of Day
14h 55m
Tomorrow will be 2m 0s shorter.
Waning Crescent, 11% of the Moon is Illuminated
Today
Waning Crescent
Jul 26
New
Aug 3
First Quarter
Aug 10
Full
Aug 17
Last Quarter

Today's Extremes

State Highs State Lows

Community

WunderPhotos

Upload Photos

1,736,535 photos uploaded!

Nearby

Snow Depth

Station Depth Elevation
North Rapid Creek 0 in 6130 ft
Blind Park 0 in 6890 ft

Earthquake Activity

City Distance Mag. Time & Date
No recent earthquake activity has been reported nearby.
Minimum magnitude displayed is 2.5.

Coastal Water Temperatures

Place Temperature
No Stations Reporting

Nearby Weather Stations

Station Location Temp. Dew Point Humidity Wind Precip. Elev Updated Type
Pleasant Hills, Mitchell, SD 60.9 °F 59 °F 93% East  at  0.0 mph 0.00 in / hr 1285 ft 4:15 AM CDT Normal

Show More Stations Show Fewer Stations